Time;durP1;ratioP1;P1;durP2;ratioP2;P2;SDS_P1;SDS_P2;PMS_P1;PMS_P2;Temp;Humidity;BMP_temperature;BMP_pressure;BME280_temperature;BME280_humidity;BME280_pressure;Samples;Min_cycle;Max_cycle;Signal;HPM_P1;HPM_P2
2024/03/11 00:00:15;;;;;;;;;20.25;15.75;;;;;11.79;76.98;101294.94;146611;654;47010;-70
2024/03/11 00:03:12;;;;;;;;;16.50;16.00;;;;;11.71;76.94;101284.91;146608;608;46911;-71
2024/03/11 00:06:24;;;;;;;;;18.00;16.50;;;;;11.64;78.04;101283.69;146612;734;46011;-70
2024/03/11 00:09:42;;;;;;;;;;;;;;;;;;;;;
2024/03/11 00:12:40;;;;;;;;;17.75;16.75;;;;;11.62;78.15;101274.94;146611;620;46021;-70
2024/03/11 00:15:41;;;;;;;;;19.00;16.25;;;;;11.62;78.09;101271.41;146609;591;46016;-70
2024/03/11 00:18:36;;;;;;;;;20.00;17.75;;;;;11.65;78.28;101259.53;146611;579;46010;-71
2024/03/11 00:21:29;;;;;;;;;23.75;20.25;;;;;11.66;78.50;101260.41;146608;606;46017;-72
2024/03/11 00:24:34;;;;;;;;;21.00;17.00;;;;;11.67;78.01;101262.19;146613;600;46020;-70
2024/03/11 00:27:45;;;;;;;;;22.50;19.25;;;;;11.67;78.43;101267.37;146611;613;46016;-72
2024/03/11 00:30:45;;;;;;;;;20.75;17.50;;;;;11.66;77.97;101248.31;146611;569;47010;-72
2024/03/11 00:33:40;;;;;;;;;23.50;20.50;;;;;11.63;77.89;101247.25;146610;564;46012;-71
2024/03/11 00:36:44;;;;;;;;;21.50;19.25;;;;;11.59;78.09;101243.59;146612;613;46030;-71
2024/03/11 00:39:44;;;;;;;;;19.00;19.00;;;;;11.55;77.96;101237.31;146610;618;47043;-73
2024/03/11 00:42:43;;;;;;;;;22.25;19.75;;;;;11.54;77.70;101232.94;146612;608;46011;-74
2024/03/11 00:45:40;;;;;;;;;24.25;23.50;;;;;11.55;77.80;101228.62;146610;597;46012;-69
2024/03/11 00:48:33;;;;;;;;;29.00;24.75;;;;;11.55;77.93;101218.25;146611;697;46020;-70
2024/03/11 00:51:30;;;;;;;;;23.50;21.75;;;;;11.53;77.58;101218.19;146610;602;46012;-69
2024/03/11 00:54:26;;;;;;;;;23.50;23.00;;;;;11.55;77.69;101220.84;146609;578;47010;-71
2024/03/11 00:57:29;;;;;;;;;25.75;22.50;;;;;11.58;77.64;101205.44;146612;565;46012;-70
2024/03/11 01:00:26;;;;;;;;;24.50;22.50;;;;;11.60;77.29;101211.62;146610;582;47010;-71
2024/03/11 01:03:35;;;;;;;;;30.25;24.25;;;;;11.54;77.32;101201.78;146608;564;47012;-71
2024/03/11 01:06:41;;;;;;;;;22.00;22.00;;;;;11.55;77.46;101202.66;146611;597;46021;-70
2024/03/11 01:09:48;;;;;;;;;24.00;23.50;;;;;11.52;77.09;101198.19;146611;573;46016;-71
2024/03/11 01:12:41;;;;;;;;;29.75;26.50;;;;;11.59;77.31;101203.72;146606;564;47011;-71
2024/03/11 01:15:42;;;;;;;;;30.00;24.75;;;;;11.59;77.21;101194.25;146610;660;46038;-72
2024/03/11 01:18:49;;;;;;;;;31.25;27.00;;;;;11.57;76.00;101201.06;146612;575;46020;-72
2024/03/11 01:21:44;;;;;;;;;31.50;27.00;;;;;11.54;77.23;101193.97;146608;600;47012;-71
2024/03/11 01:24:41;;;;;;;;;34.00;30.00;;;;;11.54;77.99;101201.78;146615;571;46020;-71
2024/03/11 01:27:35;;;;;;;;;32.25;29.00;;;;;11.52;78.79;101194.69;146612;578;47014;-72
2024/03/11 01:30:34;;;;;;;;;25.25;25.25;;;;;11.48;77.84;101182.37;146614;650;46030;-72
2024/03/11 01:33:33;;;;;;;;;25.75;24.00;;;;;11.41;78.14;101175.06;146611;584;46016;-72
2024/03/11 01:36:34;;;;;;;;;25.00;23.50;;;;;11.35;78.08;101175.63;146614;586;46010;-70
2024/03/11 01:39:26;;;;;;;;;27.50;25.50;;;;;11.29;78.35;101162.28;146609;590;47016;-71
2024/03/11 01:42:25;;;;;;;;;29.25;26.00;;;;;11.25;78.07;101150.84;146611;612;46011;-71
2024/03/11 01:45:22;;;;;;;;;27.00;26.00;;;;;11.25;78.79;101158.63;146609;585;46913;-71
2024/03/11 01:48:37;;;;;;;;;28.00;26.00;;;;;11.28;78.06;101164.00;146607;586;47021;-72
2024/03/11 01:52:02;;;;;;;;;29.75;25.75;;;;;11.27;77.29;101163.91;146610;663;46016;-72
2024/03/11 01:55:10;;;;;;;;;33.25;28.75;;;;;11.27;78.02;101156.09;146610;572;47010;-72
2024/03/11 01:58:06;;;;;;;;;34.25;30.00;;;;;11.31;78.36;101168.47;146611;569;46016;-71
2024/03/11 02:01:10;;;;;;;;;41.25;31.75;;;;;11.31;77.63;101165.87;146612;581;46020;-72
2024/03/11 02:04:14;;;;;;;;;28.75;25.25;;;;;11.32;77.55;101170.25;146611;564;47013;-72
2024/03/11 02:07:13;;;;;;;;;26.75;26.75;;;;;11.30;78.25;101167.56;146614;622;46020;-71
2024/03/11 02:10:14;;;;;;;;;33.50;29.00;;;;;11.30;78.49;101170.16;146608;569;47016;-73
2024/03/11 02:13:12;;;;;;;;;25.50;25.50;;;;;11.29;78.47;101172.69;146612;615;46020;-72
2024/03/11 02:16:06;;;;;;;;;26.75;24.75;;;;;11.29;78.43;101164.88;146612;593;46016;-73
2024/03/11 02:19:12;;;;;;;;;30.00;28.00;;;;;11.31;78.60;101158.09;146608;642;46022;-74
2024/03/11 02:22:09;;;;;;;;;32.50;28.50;;;;;11.33;78.43;101169.44;146608;577;46913;-74
2024/03/11 02:25:11;;;;;;;;;40.75;32.75;;;;;11.31;77.92;101163.28;146613;643;46020;-71
2024/03/11 02:28:06;;;;;;;;;27.75;26.50;;;;;11.32;79.30;101159.88;146610;606;47012;-72
2024/03/11 02:31:05;;;;;;;;;25.75;22.50;;;;;11.31;79.08;101165.87;146613;611;46020;-72
2024/03/11 02:34:13;;;;;;;;;28.00;21.25;;;;;11.27;78.90;101174.28;146611;622;46017;-72
2024/03/11 02:37:17;;;;;;;;;29.25;26.75;;;;;11.29;78.43;101167.47;146613;566;46020;-73
2024/03/11 02:40:12;;;;;;;;;27.25;26.00;;;;;11.36;79.44;101166.13;146611;570;46016;-73
2024/03/11 02:43:17;;;;;;;;;24.75;23.25;;;;;11.39;78.65;101156.78;146613;569;46033;-73
2024/03/11 02:46:10;;;;;;;;;25.50;23.25;;;;;11.41;78.62;101160.38;146631;585;45915;-71
2024/03/11 02:49:12;;;;;;;;;29.50;25.00;;;;;11.37;78.69;101153.22;146633;571;46010;-71
2024/03/11 02:52:14;;;;;;;;;28.75;24.00;;;;;11.31;78.24;101151.19;146632;602;46016;-72
2024/03/11 02:55:13;;;;;;;;;24.25;24.25;;;;;11.30;78.71;101151.09;146632;583;46011;-72
2024/03/11 02:58:25;;;;;;;;;;;;;;;;;;;;;
2024/03/11 03:01:27;;;;;;;;;28.50;27.25;;;;;11.17;78.66;101154.72;146636;682;45010;-72
2024/03/11 03:04:23;;;;;;;;;27.75;24.75;;;;;11.14;79.04;101169.22;146632;595;45017;-69
2024/03/11 03:07:26;;;;;;;;;28.25;27.25;;;;;11.13;78.89;101165.75;146632;609;46020;-70
2024/03/11 03:10:29;;;;;;;;;30.00;26.25;;;;;11.16;78.99;101162.44;146626;570;46914;-75
2024/03/11 03:13:31;;;;;;;;;34.00;30.50;;;;;11.15;79.15;101168.41;146635;622;45020;-74
2024/03/11 03:16:34;;;;;;;;;33.75;27.50;;;;;11.11;79.02;101164.75;146633;571;46014;-77
2024/03/11 03:19:30;;;;;;;;;29.25;26.00;;;;;11.17;78.89;101164.22;146633;671;45010;-74
2024/03/11 03:22:27;;;;;;;;;31.25;27.75;;;;;11.17;nan;101151.22;146633;573;45012;-75
2024/03/11 03:25:34;;;;;;;;;32.25;27.75;;;;;11.18;78.79;101159.09;146636;580;45021;-74
2024/03/11 03:28:33;;;;;;;;;30.25;26.50;;;;;11.17;79.39;101154.72;146621;611;47913;-76
2024/03/11 03:31:33;;;;;;;;;29.25;27.00;;;;;11.16;79.21;101150.34;146634;589;46010;-75
2024/03/11 03:34:40;;;;;;;;;26.25;23.75;;;;;11.14;79.26;101154.53;146632;606;45017;-75
2024/03/11 03:37:47;;;;;;;;;22.00;20.50;;;;;11.12;79.18;101152.66;146635;611;45012;-74
2024/03/11 03:40:45;;;;;;;;;24.00;22.75;;;;;11.12;79.18;101155.25;146633;573;45014;-75
2024/03/11 03:43:49;;;;;;;;;27.00;22.75;;;;;11.09;79.41;101146.50;146629;583;45020;-75
2024/03/11 03:46:56;;;;;;;;;23.00;23.00;;;;;11.05;79.18;101152.31;146611;696;46017;-75
2024/03/11 03:49:51;;;;;;;;;22.50;21.00;;;;;11.00;79.23;101146.00;146609;579;46010;-72
2024/03/11 03:52:51;;;;;;;;;27.25;25.25;;;;;10.95;79.34;101149.13;146610;566;46915;-73
2024/03/11 03:55:46;;;;;;;;;24.50;20.00;;;;;10.89;79.61;101141.91;146613;604;47021;-73
2024/03/11 03:59:01;;;;;;;;;21.50;18.25;;;;;10.82;80.03;101135.47;146608;569;47012;-73
2024/03/11 04:02:08;;;;;;;;;23.75;21.50;;;;;10.75;80.37;101127.28;146611;625;47010;-73
2024/03/11 04:05:02;;;;;;;;;24.50;21.25;;;;;10.70;81.80;101121.81;146611;651;46034;-73
2024/03/11 04:08:01;;;;;;;;;24.00;17.50;;;;;10.67;82.95;101120.75;146614;650;46010;-70
2024/03/11 04:11:02;;;;;;;;;19.50;17.75;;;;;10.60;85.23;101116.91;146611;570;46017;-70
2024/03/11 04:14:06;;;;;;;;;23.25;20.50;;;;;10.64;86.88;101122.34;146613;615;46010;-74
2024/03/11 04:17:12;;;;;;;;;24.00;21.25;;;;;10.76;89.07;101113.47;146610;596;47016;-72
2024/03/11 04:20:26;;;;;;;;;23.75;20.00;;;;;10.93;89.60;101110.12;146612;585;46020;-73
2024/03/11 04:23:22;;;;;;;;;16.75;14.75;;;;;11.19;88.89;101102.91;146613;622;46012;-75
2024/03/11 04:26:19;;;;;;;;;13.00;12.00;;;;;11.47;87.43;101105.28;146612;589;47020;-75
2024/03/11 04:29:15;;;;;;;;;18.50;12.25;;;;;11.74;86.65;101104.16;146609;574;46019;-73
2024/03/11 04:32:12;;;;;;;;;14.75;14.00;;;;;12.02;86.62;101096.12;146613;666;46011;-70
2024/03/11 04:35:32;;;;;;;;;15.25;13.25;;;;;12.22;83.73;101081.53;146612;584;46016;-70
2024/03/11 04:38:37;;;;;;;;;16.00;13.00;;;;;12.47;81.03;101094.03;146613;616;46011;-72
2024/03/11 04:41:41;;;;;;;;;15.75;15.50;;;;;12.62;81.46;101098.22;146611;699;46016;-73
2024/03/11 04:44:36;;;;;;;;;15.00;13.00;;;;;12.72;81.95;101097.84;146612;578;46010;-71
2024/03/11 04:47:33;;;;;;;;;20.00;18.75;;;;;12.76;79.87;101084.16;146609;581;47013;-71
2024/03/11 04:50:47;;;;;;;;;17.75;15.50;;;;;12.88;80.17;101089.06;146609;625;46012;-72
2024/03/11 04:53:48;;;;;;;;;16.00;14.25;;;;;12.92;79.09;101084.03;146612;565;46015;-72
2024/03/11 04:56:46;;;;;;;;;18.00;17.00;;;;;12.96;79.98;101079.91;146611;582;46030;-73
2024/03/11 04:59:40;;;;;;;;;21.50;17.50;;;;;12.95;80.00;101079.00;146611;653;46016;-73
2024/03/11 05:02:41;;;;;;;;;17.50;14.50;;;;;12.99;78.90;101068.72;146609;594;48011;-74
2024/03/11 05:05:39;;;;;;;;;17.75;17.25;;;;;12.99;81.35;101079.12;146611;622;46012;-75
2024/03/11 05:08:37;;;;;;;;;17.75;16.00;;;;;13.01;81.95;101069.69;146611;719;46010;-72
2024/03/11 05:11:30;;;;;;;;;15.00;14.25;;;;;13.04;79.56;101068.13;146610;563;46025;-72
2024/03/11 05:14:41;;;;;;;;;16.25;14.00;;;;;13.10;78.96;101057.09;146613;576;46020;-71
2024/03/11 05:17:46;;;;;;;;;14.00;13.00;;;;;13.17;78.12;101067.84;146609;574;47012;-71
2024/03/11 05:20:46;;;;;;;;;13.50;13.50;;;;;13.24;79.67;101060.31;146611;572;46020;-71
2024/03/11 05:23:42;;;;;;;;;16.75;15.00;;;;;13.24;80.28;101056.03;146611;598;47017;-71
2024/03/11 05:26:50;;;;;;;;;14.25;12.00;;;;;13.30;78.67;101050.22;146612;601;46010;-72
2024/03/11 05:29:55;;;;;;;;;18.25;16.50;;;;;13.38;78.08;101046.28;146609;571;47012;-72
2024/03/11 05:32:52;;;;;;;;;14.25;13.75;;;;;13.43;78.14;101042.16;146610;564;46010;-70
2024/03/11 05:35:48;;;;;;;;;14.50;13.00;;;;;13.50;78.00;101041.59;146608;643;48014;-70
2024/03/11 05:38:48;;;;;;;;;14.25;12.50;;;;;13.55;77.50;101047.94;146613;604;46021;-72
2024/03/11 05:41:48;;;;;;;;;11.00;11.00;;;;;13.76;77.70;101042.75;146611;693;46016;-69
2024/03/11 05:44:42;;;;;;;;;14.25;13.50;;;;;14.06;76.40;101039.69;146617;651;46028;-74
2024/03/11 05:47:38;;;;;;;;;15.50;14.50;;;;;14.20;75.20;101041.13;146612;617;46017;-69
2024/03/11 05:50:44;;;;;;;;;15.25;13.75;;;;;14.25;74.49;101052.66;146612;633;47020;-75
2024/03/11 05:53:40;;;;;;;;;15.00;13.00;;;;;14.26;75.24;101050.94;146610;603;46016;-75
2024/03/11 05:56:36;;;;;;;;;12.00;11.25;;;;;14.23;75.08;101038.62;146613;563;46010;-74
2024/03/11 05:59:42;;;;;;;;;12.50;12.00;;;;;14.27;75.49;101045.78;146609;584;46016;-74
2024/03/11 06:02:46;;;;;;;;;14.00;13.50;;;;;14.38;75.77;101048.81;146612;647;46021;-75
2024/03/11 06:06:08;;;;;;;;;15.00;15.00;;;;;14.45;74.91;101050.84;146611;597;46012;-76
2024/03/11 06:09:16;;;;;;;;;15.50;13.00;;;;;14.57;74.78;101058.31;146614;632;47020;-74
2024/03/11 06:12:31;;;;;;;;;12.00;11.75;;;;;14.65;75.71;101059.53;146609;627;47016;-76
2024/03/11 06:15:30;;;;;;;;;14.75;14.50;;;;;14.71;76.29;101069.34;146611;565;46021;-78
2024/03/11 06:18:33;;;;;;;;;17.50;16.00;;;;;14.83;75.60;101068.91;146609;581;46027;-81
2024/03/11 06:21:35;;;;;;;;;16.50;15.00;;;;;14.93;76.41;101092.84;146609;564;46023;-79
2024/03/11 06:24:33;;;;;;;;;15.50;13.75;;;;;14.99;77.79;101108.75;146610;618;46012;-76
2024/03/11 06:27:27;;;;;;;;;15.00;14.50;;;;;15.01;78.26;101127.06;146613;602;46010;-77
2024/03/11 06:30:25;;;;;;;;;16.75;15.00;;;;;15.05;78.38;101129.00;146611;668;47013;-76
2024/03/11 06:33:28;;;;;;;;;32.50;27.50;;;;;15.15;78.06;101138.97;146612;594;46020;-74
2024/03/11 06:36:29;;;;;;;;;29.25;27.50;;;;;15.32;77.55;101142.22;146610;580;47012;-77
2024/03/11 06:39:22;;;;;;;;;27.50;26.25;;;;;15.46;77.22;101148.87;146611;570;47010;-70
2024/03/11 06:42:16;;;;;;;;;29.25;25.00;;;;;15.57;75.61;101162.34;146608;612;46016;-76
2024/03/11 06:45:11;;;;;;;;;29.25;27.00;;;;;15.68;74.96;101158.47;146617;586;47011;-77
2024/03/11 06:48:06;;;;;;;;;24.50;23.50;;;;;15.69;74.35;101164.56;146616;575;46037;-76
2024/03/11 06:50:59;;;;;;;;;28.50;24.50;;;;;15.70;74.85;101169.88;146617;605;47020;-77
2024/03/11 06:54:13;;;;;;;;;28.50;24.25;;;;;14.68;73.99;100986.56;146616;597;46017;-77
2024/03/11 06:57:12;;;;;;;;;29.50;24.75;;;;;15.83;75.37;101171.22;146620;590;46020;-77
2024/03/11 07:00:17;;;;;;;;;22.00;20.75;;;;;15.92;75.46;101168.06;146618;608;46013;-76
2024/03/11 07:03:20;;;;;;;;;29.50;27.00;;;;;15.97;74.28;101170.81;146619;580;46020;-76
2024/03/11 07:06:27;;;;;;;;;39.00;33.50;;;;;15.99;74.09;101163.94;146618;698;45017;-77
2024/03/11 07:09:23;;;;;;;;;34.75;29.50;;;;;16.06;74.04;101165.91;146621;623;46029;-78
2024/03/11 07:12:26;;;;;;;;;28.75;25.75;;;;;15.38;73.85;101026.59;146616;628;46016;-76
2024/03/11 07:15:35;;;;;;;;;20.75;18.00;;;;;16.34;73.70;101165.16;146619;603;47021;-71
2024/03/11 07:18:34;;;;;;;;;20.75;20.75;;;;;16.60;72.22;101180.06;146615;624;46016;-76
2024/03/11 07:21:47;;;;;;;;;19.00;18.00;;;;;14.81;71.25;100852.19;146619;583;46020;-75
2024/03/11 07:24:52;;;;;;;;;21.50;19.00;;;;;17.01;71.58;101200.66;146613;635;47913;-73
2024/03/11 07:27:48;;;;;;;;;30.50;28.25;;;;;17.21;70.93;101193.41;146619;564;47010;-79
2024/03/11 07:30:47;;;;;;;;;37.50;32.50;;;;;17.38;69.63;101191.31;146616;711;46016;-79
2024/03/11 07:33:49;;;;;;;;;38.25;31.00;;;;;17.54;68.90;101186.59;146619;667;46020;-79
2024/03/11 07:36:47;;;;;;;;;39.50;29.50;;;;;17.69;68.58;101175.66;146616;577;47012;-80
2024/03/11 07:39:59;;;;;;;;;42.50;34.00;;;;;17.85;67.76;101182.28;146617;570;46020;-79
2024/03/11 07:42:58;;;;;;;;;31.00;27.75;;;;;18.01;66.38;101186.25;146614;634;46016;-81
2024/03/11 07:46:04;;;;;;;;;33.75;29.50;;;;;18.16;65.63;101191.00;146634;582;45021;-81
2024/03/11 07:49:13;;;;;;;;;31.75;28.75;;;;;18.33;66.07;101199.37;146626;563;46012;-79
2024/03/11 07:52:12;;;;;;;;;27.75;24.50;;;;;18.48;66.61;101196.28;146631;581;45021;-79
2024/03/11 07:55:23;;;;;;;;;34.25;30.50;;;;;17.68;66.45;101013.03;146628;574;46915;-80
2024/03/11 07:58:20;;;;;;;;;34.00;30.00;;;;;18.96;63.82;101187.88;146632;583;45591;-79
2024/03/11 08:01:21;;;;;;;;;26.50;22.75;;;;;19.17;63.32;101187.50;146632;694;46012;-78
2024/03/11 08:04:25;;;;;;;;;31.50;26.25;;;;;19.39;62.21;101192.41;146633;563;46020;-80
2024/03/11 08:07:17;;;;;;;;;28.00;24.25;;;;;19.53;61.14;101190.06;146633;596;45916;-79
2024/03/11 08:10:17;;;;;;;;;23.00;19.50;;;;;19.59;61.14;101183.22;146636;575;46020;-79
2024/03/11 08:13:21;;;;;;;;;23.50;18.50;;;;;19.60;59.21;101192.00;146629;609;46012;-80
2024/03/11 08:16:27;;;;;;;;;21.25;19.25;;;;;19.39;58.02;101195.91;146633;570;46010;-76
2024/03/11 08:19:32;;;;;;;;;18.00;17.50;;;;;19.08;59.54;101198.69;146633;613;45016;-79
2024/03/11 08:22:29;;;;;;;;;15.25;15.00;;;;;18.87;59.93;101197.31;146633;601;45021;-79
2024/03/11 08:25:31;;;;;;;;;17.25;14.50;;;;;18.73;60.21;101192.56;146634;664;45016;-77
2024/03/11 08:28:40;;;;;;;;;16.75;16.75;;;;;18.56;61.25;101208.72;146634;655;45021;-79
2024/03/11 08:31:40;;;;;;;;;15.50;14.00;;;;;18.41;60.61;101214.47;146631;670;47012;-80
2024/03/11 08:34:33;;;;;;;;;17.75;14.75;;;;;18.24;61.32;101207.88;146634;674;46010;-78
2024/03/11 08:37:37;;;;;;;;;19.25;16.00;;;;;18.24;62.11;101205.25;146632;578;45014;-79
2024/03/11 08:40:36;;;;;;;;;13.75;12.50;;;;;18.33;61.57;101204.62;146637;711;44913;-79
2024/03/11 08:43:38;;;;;;;;;22.75;19.75;;;;;18.37;61.48;101199.47;146631;570;46015;-80
2024/03/11 08:46:58;;;;;;;;;21.75;18.00;;;;;18.50;61.65;101205.06;146609;582;47010;-79
2024/03/11 08:50:10;;;;;;;;;;;;;;;;;;;;;
2024/03/11 08:53:08;;;;;;;;;20.50;19.50;;;;;18.78;61.39;101194.44;146612;684;46010;-78
2024/03/11 08:56:28;;;;;;;;;17.00;16.00;;;;;18.90;62.06;101200.00;146610;580;46911;-79
2024/03/11 08:59:26;;;;;;;;;16.25;15.75;;;;;18.93;60.72;101207.97;146612;580;46012;-78
2024/03/11 09:02:48;;;;;;;;;16.25;12.50;;;;;18.84;60.14;101213.00;146611;564;46016;-79
2024/03/11 09:05:41;;;;;;;;;21.00;19.00;;;;;18.72;61.39;101202.13;146611;603;46020;-78
2024/03/11 09:08:45;;;;;;;;;17.50;15.75;;;;;18.62;60.92;101208.88;146610;597;47014;-78
2024/03/11 09:11:52;;;;;;;;;14.25;12.00;;;;;18.49;61.48;101205.91;146613;571;47020;-78
2024/03/11 09:14:55;;;;;;;;;18.00;16.00;;;;;18.36;61.54;101209.94;146609;724;47017;-79
2024/03/11 09:17:55;;;;;;;;;17.00;15.00;;;;;18.32;61.01;101206.34;146612;576;48020;-78
2024/03/11 09:20:53;;;;;;;;;17.50;17.25;;;;;18.36;62.06;101212.56;146609;570;46017;-79
2024/03/11 09:24:06;;;;;;;;;17.25;13.00;;;;;18.45;60.65;101199.69;146613;719;46020;-80
2024/03/11 09:27:09;;;;;;;;;12.25;11.25;;;;;18.48;60.97;101198.91;146610;586;46032;-80
2024/03/11 09:30:07;;;;;;;;;19.00;15.75;;;;;18.50;61.21;101192.81;146612;688;47020;-74
2024/03/11 09:33:11;;;;;;;;;17.75;13.00;;;;;18.55;61.62;101174.56;146612;584;46016;-84
2024/03/11 09:36:16;;;;;;;;;11.00;10.50;;;;;18.67;61.57;101170.50;146613;695;47011;-81
2024/03/11 09:39:13;;;;;;;;;13.75;12.00;;;;;18.85;60.26;101162.25;146607;666;47016;-78
2024/03/11 09:42:17;;;;;;;;;19.25;16.00;;;;;19.04;59.75;101157.44;146611;574;46021;-86
2024/03/11 09:45:39;;;;;;;;;14.75;12.75;;;;;19.22;58.39;101152.59;146612;566;46016;-79
2024/03/11 09:48:38;;;;;;;;;17.25;14.00;;;;;19.36;58.40;101145.00;146614;564;46020;-82
2024/03/11 09:51:47;;;;;;;;;15.00;14.00;;;;;19.53;58.12;101135.75;146611;639;46016;-83
2024/03/11 09:54:50;;;;;;;;;13.67;11.67;;;;;19.74;56.32;101131.81;146611;564;46010;-82
2024/03/11 09:58:01;;;;;;;;;14.25;11.50;;;;;19.90;57.74;101130.38;146610;575;47012;-82
2024/03/11 10:01:23;;;;;;;;;12.67;12.67;;;;;19.83;53.34;101132.88;146612;577;46010;-79
2024/03/11 10:04:20;;;;;;;;;12.00;9.67;;;;;19.70;53.12;101132.59;146613;580;46039;-80
2024/03/11 10:07:23;;;;;;;;;6.75;5.25;;;;;18.76;53.43;100995.63;146621;566;46020;-80
2024/03/11 10:10:27;;;;;;;;;11.00;8.67;;;;;19.36;53.51;101119.59;146616;569;47016;-80
2024/03/11 10:13:33;;;;;;;;;9.67;9.00;;;;;19.21;55.68;101127.12;146618;571;47053;-81
2024/03/11 10:16:32;;;;;;;;;10.25;9.00;;;;;19.04;51.14;101131.16;146617;616;46016;-79
2024/03/11 10:19:27;;;;;;;;;8.00;7.00;;;;;18.91;52.75;101109.84;146626;581;46010;-82
2024/03/11 10:22:33;;;;;;;;;13.33;9.67;;;;;18.84;55.09;101099.13;146620;572;47913;-81
2024/03/11 10:25:31;;;;;;;;;9.00;7.00;;;;;18.79;52.88;101106.91;146620;678;47010;-80
2024/03/11 10:28:38;;;;;;;;;6.33;5.67;;;;;18.71;52.52;101097.91;146619;571;46914;-81
2024/03/11 10:31:41;;;;;;;;;10.00;8.00;;;;;18.65;53.12;101095.13;146623;574;46034;-80
2024/03/11 10:34:59;;;;;;;;;9.00;7.00;;;;;18.62;53.81;101100.31;146619;599;47014;-82
2024/03/11 10:38:25;;;;;;;;;10.25;8.75;;;;;18.61;53.66;101088.06;146620;684;47020;-79
2024/03/11 10:41:38;;;;;;;;;10.75;10.00;;;;;18.48;53.95;101092.13;146620;664;46012;-82
2024/03/11 10:44:37;;;;;;;;;12.50;9.75;;;;;18.38;55.95;101093.63;146615;695;46020;-83
2024/03/11 10:47:49;;;;;;;;;8.67;8.67;;;;;18.28;56.37;101082.84;146617;575;46016;-80
2024/03/11 10:50:51;;;;;;;;;10.00;9.00;;;;;18.25;55.10;101073.12;146621;579;46021;-80
2024/03/11 10:53:58;;;;;;;;;10.00;7.67;;;;;18.13;51.51;101070.19;146618;659;46012;-82
2024/03/11 10:56:51;;;;;;;;;8.00;6.00;;;;;18.05;50.67;101066.50;146618;564;47010;-77
2024/03/11 10:59:51;;;;;;;;;8.00;7.00;;;;;17.99;50.82;101055.00;146617;687;46016;-76
2024/03/11 11:03:12;;;;;;;;;9.00;6.00;;;;;17.93;50.35;101044.34;146623;569;46020;-78
2024/03/11 11:06:14;;;;;;;;;8.25;7.50;;;;;17.14;51.35;100892.75;146618;608;46022;-77
2024/03/11 11:09:14;;;;;;;;;8.00;7.00;;;;;18.10;50.23;101047.41;146620;563;47020;-76
2024/03/11 11:12:09;;;;;;;;;8.25;8.00;;;;;18.12;49.75;101047.44;146616;604;46017;-73
2024/03/11 11:15:38;;;;;;;;;7.33;5.00;;;;;16.19;53.45;100705.06;146620;602;47010;-78
2024/03/11 11:18:39;;;;;;;;;10.00;9.00;;;;;18.24;50.59;101030.25;146617;593;46015;-78
2024/03/11 11:21:36;;;;;;;;;9.00;7.00;;;;;18.29;50.32;101011.13;146619;584;47010;-78
2024/03/11 11:24:42;;;;;;;;;14.75;12.50;;;;;18.37;50.15;101034.06;146615;582;46016;-77
2024/03/11 11:27:55;;;;;;;;;10.33;9.33;;;;;18.56;51.32;101032.78;146612;578;46010;-74
2024/03/11 11:30:52;;;;;;;;;10.25;8.50;;;;;18.75;51.47;101023.59;146617;569;46016;-75
2024/03/11 11:33:54;;;;;;;;;10.00;9.00;;;;;18.93;52.85;101018.75;146622;571;46011;-74
2024/03/11 11:37:07;;;;;;;;;17.25;14.75;;;;;19.04;53.35;101020.75;146615;653;47012;-74
2024/03/11 11:40:24;;;;;;;;;11.00;7.67;;;;;19.12;50.97;101014.78;146612;574;47012;-72
2024/03/11 11:43:54;;;;;;;;;7.00;7.00;;;;;19.21;49.35;101008.84;146618;563;46909;-74
2024/03/11 11:46:52;;;;;;;;;12.67;9.33;;;;;19.32;48.38;101006.44;146627;612;46010;-76
2024/03/11 11:50:02;;;;;;;;;8.00;5.00;;;;;19.46;51.43;101002.31;146634;615;46017;-76
2024/03/11 11:53:06;;;;;;;;;13.00;11.00;;;;;19.64;52.04;101000.91;146635;582;45020;-76
2024/03/11 11:56:00;;;;;;;;;11.00;8.33;;;;;19.74;49.14;101003.75;146632;576;45017;-74
2024/03/11 11:59:08;;;;;;;;;9.00;7.67;;;;;19.80;51.29;100998.63;146632;649;46010;-74
2024/03/11 12:02:12;;;;;;;;;11.00;10.00;;;;;19.90;48.08;100993.50;146633;573;45016;-72
2024/03/11 12:05:07;;;;;;;;;12.75;10.25;;;;;20.04;50.83;100987.62;146635;688;45010;-77
2024/03/11 12:08:08;;;;;;;;;14.00;10.67;;;;;20.29;47.15;100985.41;146630;624;45913;-75
2024/03/11 12:11:19;;;;;;;;;11.00;9.00;;;;;20.51;46.31;100977.00;146635;592;46021;-75
2024/03/11 12:14:22;;;;;;;;;10.33;9.00;;;;;20.71;46.39;100979.03;146631;576;45016;-77
2024/03/11 12:17:21;;;;;;;;;9.67;8.67;;;;;20.82;45.37;100961.63;146633;672;45914;-75
2024/03/11 12:20:37;;;;;;;;;18.75;15.50;;;;;19.46;47.16;100728.81;146631;580;45037;-75
2024/03/11 12:23:31;;;;;;;;;11.00;10.00;;;;;20.72;45.44;100946.56;146633;586;45020;-74
2024/03/11 12:26:27;;;;;;;;;10.00;10.00;;;;;20.74;45.72;100923.72;146634;580;46041;-75
2024/03/11 12:29:24;;;;;;;;;14.50;14.00;;;;;20.83;44.76;100937.03;146632;570;45020;-77
2024/03/11 12:32:30;;;;;;;;;;;;;;;;;;;;;
2024/03/11 12:35:43;;;;;;;;;11.00;9.25;;;;;19.87;43.47;100754.00;146634;661;45020;-74
2024/03/11 12:38:51;;;;;;;;;11.25;10.25;;;;;20.77;45.92;100931.66;146633;590;45020;-77
2024/03/11 12:41:47;;;;;;;;;9.67;7.33;;;;;20.60;43.77;100917.41;146633;571;45021;-78
2024/03/11 12:44:41;;;;;;;;;9.33;7.33;;;;;20.39;43.20;100900.41;146622;593;46031;-77
2024/03/11 12:47:40;;;;;;;;;6.00;6.00;;;;;20.18;43.32;100907.97;146623;570;46034;-79
2024/03/11 12:50:39;;;;;;;;;9.33;6.33;;;;;19.96;43.33;100898.88;146613;574;46016;-74
2024/03/11 12:53:44;;;;;;;;;12.25;11.00;;;;;19.86;43.88;100894.34;146618;613;46020;-78
2024/03/11 12:56:39;;;;;;;;;14.50;10.50;;;;;19.76;44.76;100888.91;146606;630;46017;-79
2024/03/11 12:59:43;;;;;;;;;10.00;9.00;;;;;19.60;43.61;100892.13;146707;565;46013;-82
2024/03/11 13:03:27;;;;;;;;;10.00;9.33;;;;;19.58;43.48;100870.16;146625;629;47012;-76
2024/03/11 13:06:25;;;;;;;;;10.00;9.67;;;;;19.55;43.65;100873.63;146630;641;46021;-76
2024/03/11 13:09:40;;;;;;;;;;;;;;;;;;;;;
2024/03/11 13:12:44;;;;;;;;;10.00;8.33;;;;;19.68;43.93;100864.22;146626;579;46010;-76
2024/03/11 13:15:48;;;;;;;;;6.67;6.00;;;;;19.81;45.95;100849.50;146621;577;46028;-72
2024/03/11 13:18:43;;;;;;;;;13.50;12.50;;;;;19.89;44.66;100852.28;146626;584;46020;-76
2024/03/11 13:21:47;;;;;;;;;13.67;12.33;;;;;19.94;43.88;100834.81;146616;601;46017;-77
2024/03/11 13:24:44;;;;;;;;;11.25;9.75;;;;;20.04;42.22;100831.44;146622;649;46020;-72
2024/03/11 13:27:46;;;;;;;;;6.33;5.00;;;;;20.12;41.76;100823.66;146621;574;47016;-75
2024/03/11 13:30:59;;;;;;;;;23.00;16.75;;;;;20.25;41.53;100844.91;146630;622;46029;-72
2024/03/11 13:34:01;;;;;;;;;6.00;6.00;;;;;20.37;41.36;100824.84;146619;575;46016;-74
2024/03/11 13:37:00;;;;;;;;;6.00;5.00;;;;;20.40;40.24;100793.28;146629;646;47012;-77
2024/03/11 13:39:58;;;;;;;;;11.00;8.67;;;;;20.49;40.23;100807.47;146625;673;47012;-74
2024/03/11 13:43:00;;;;;;;;;5.67;3.33;;;;;20.51;40.67;100815.41;146631;620;46010;-78
2024/03/11 13:46:01;;;;;;;;;6.00;5.00;;;;;20.57;40.96;100806.72;146622;564;46016;-75
2024/03/11 13:48:58;;;;;;;;;6.00;6.00;;;;;20.56;39.23;100816.37;146630;594;47010;-75
2024/03/11 13:52:01;;;;;;;;;5.67;4.67;;;;;20.52;40.68;100793.47;146626;576;46012;-73
2024/03/11 13:55:05;;;;;;;;;6.00;6.00;;;;;20.58;42.61;100792.66;146629;565;45020;-78
2024/03/11 13:57:57;;;;;;;;;4.33;4.00;;;;;20.64;40.38;100790.09;146621;593;46014;-74
2024/03/11 14:00:53;;;;;;;;;5.00;5.00;;;;;20.65;40.20;100790.09;146626;620;46010;-73